Accueil
METAR-TAF:

METAR-TAF

Aéroports :

Aéroport international de Norwich

Norwich, Angleterre

latitude: 52-38N, longitude: 001-18E, altitude: 14 m

Observation

Le bulletin a été fait il y a 25 minutes, à 21:20 UTC
Vent 8 kt de nord, variant entre nord-ouest et nord/nord-est
Température 14°C
Humidité 77%
Pression 1029 hPa
Visibilité 10 km ou plus
Nuages fragmentés à une hauteur de 2500 ft

METAR: EGSH 212120Z 36008KT 320V020 9999 BKN025 14/10 Q1029 TEMPO BKN014

Heure: 22:45 (21:45 UTC)

Prévision

Le bulletin a été fait il y a 1 heure et 47 minutes, à 19:58 UTC
Prévision valable du 21 à 21 UTC au 21 à 24 UTC
Vent 9 kt de nord
Visibilité 10 km ou plus
Quelques nuages à une hauteur de 2000 ft
Nuages épars à une hauteur de 3000 ft
Probabilité 30%
du 21 à 21 UTC au 21 à 22 UTC
Visibilité: 8000 m
Nuages fragmentés à une hauteur de 1000 ft
pluie faible

TAF: EGSH 211958Z 2121/2124 35009KT 9999 FEW020 SCT030 PROB30 2121/2122 8000 -RA BKN010

Observations et prévisions météorologiques de plus de 4000 aéroports (messages METAR et TAF).

Les stations disponibles sont représentées par des disques jaunes et rouges sur la carte.

Passer la souris dessus pour voir le nom de la station.

Cliquer dessus pour voir les observations et prévisions météorologiques.

Pour changer de carte: cliquez sur les boutons verts avec une croix noire pour zoomer, sur le bouton vert avec un tiret pour effectuer un zoom arrière, ou sur les flèches vertes pour les cartes adjacentes.


METAR-TAF: